createdAt,value
2018-03-31T00:01:34.106Z,25.10
2018-03-31T00:04:03.008Z,25.10
2018-03-31T00:06:32.388Z,25.10
2018-03-31T00:09:01.740Z,25.10
2018-03-31T00:11:30.436Z,25.10
2018-03-31T00:13:59.171Z,25.10
2018-03-31T00:16:27.572Z,25.00
2018-03-31T00:18:57.367Z,25.00
2018-03-31T00:21:25.971Z,25.00
2018-03-31T00:23:55.460Z,25.00
2018-03-31T00:26:24.859Z,25.00
2018-03-31T00:28:54.887Z,24.80
2018-03-31T00:31:24.868Z,24.80
2018-03-31T00:33:55.203Z,24.80
2018-03-31T00:36:23.756Z,24.80
2018-03-31T00:38:53.213Z,24.80
2018-03-31T00:41:21.595Z,24.70
2018-03-31T00:43:51.281Z,24.70
2018-03-31T00:46:24.556Z,24.70
2018-03-31T00:48:54.654Z,24.60
2018-03-31T00:51:23.328Z,24.60
2018-03-31T00:53:53.079Z,24.70
2018-03-31T00:56:22.883Z,24.70
2018-03-31T00:58:51.575Z,24.70
2018-03-31T01:01:19.994Z,24.70
2018-03-31T01:03:49.339Z,24.60
2018-03-31T01:06:18.640Z,24.60
2018-03-31T01:08:49.381Z,24.50
2018-03-31T01:11:18.296Z,24.50
2018-03-31T01:13:48.119Z,24.50
2018-03-31T01:16:17.687Z,24.50
2018-03-31T01:18:48.428Z,24.40
2018-03-31T01:21:17.570Z,24.40
2018-03-31T01:23:47.219Z,24.50
2018-03-31T01:26:18.568Z,24.40
2018-03-31T01:28:49.518Z,24.50
2018-03-31T01:31:18.235Z,24.50
2018-03-31T01:33:47.094Z,24.50
2018-03-31T01:36:15.950Z,24.50
2018-03-31T01:38:44.871Z,24.50
2018-03-31T01:41:13.939Z,24.40
2018-03-31T01:43:42.860Z,24.40
2018-03-31T01:46:11.651Z,24.40
2018-03-31T01:48:41.171Z,24.40
2018-03-31T01:51:11.294Z,24.50
2018-03-31T01:53:41.311Z,24.50
2018-03-31T01:56:10.398Z,24.40
2018-03-31T01:58:39.715Z,24.40
2018-03-31T02:01:09.170Z,24.50
2018-03-31T02:03:39.245Z,24.40
2018-03-31T02:06:08.804Z,24.40
2018-03-31T02:08:38.246Z,24.50
2018-03-31T02:11:08.708Z,24.50
2018-03-31T02:13:38.173Z,24.50
2018-03-31T02:16:07.170Z,24.50
2018-03-31T02:18:35.762Z,24.40
2018-03-31T02:21:04.962Z,24.40
2018-03-31T02:23:35.080Z,24.40
2018-03-31T02:26:03.653Z,24.40
2018-03-31T02:28:32.544Z,24.40
2018-03-31T02:31:02.121Z,24.40
2018-03-31T02:33:31.675Z,24.40
2018-03-31T02:36:00.771Z,24.40
2018-03-31T02:38:30.387Z,24.40
2018-03-31T02:40:59.779Z,24.40
2018-03-31T02:43:31.082Z,24.50
2018-03-31T02:45:59.548Z,24.50
2018-03-31T02:48:28.163Z,24.70
2018-03-31T02:50:57.360Z,24.70
2018-03-31T02:53:25.977Z,24.80
2018-03-31T02:55:56.628Z,24.80
2018-03-31T02:58:26.016Z,25.00
2018-03-31T03:00:54.798Z,25.00
2018-03-31T03:03:24.865Z,25.30
2018-03-31T03:05:53.967Z,25.30
2018-03-31T03:08:23.263Z,25.40
2018-03-31T03:10:52.415Z,25.70
2018-03-31T03:13:21.408Z,25.90
2018-03-31T03:15:51.031Z,26.00
2018-03-31T03:18:20.131Z,26.00
2018-03-31T03:20:49.126Z,26.00
2018-03-31T03:23:18.218Z,26.00
2018-03-31T03:25:46.380Z,26.10
2018-03-31T03:28:15.713Z,26.20
2018-03-31T03:30:45.769Z,26.40
2018-03-31T03:33:15.893Z,26.40
2018-03-31T03:35:46.092Z,26.60
2018-03-31T03:38:14.841Z,26.60
2018-03-31T03:40:43.931Z,26.90
2018-03-31T03:43:12.959Z,26.90
2018-03-31T03:45:42.613Z,27.00
2018-03-31T03:48:11.502Z,27.10
2018-03-31T03:50:39.602Z,27.20
2018-03-31T03:53:08.742Z,27.30
2018-03-31T03:55:38.615Z,27.40
2018-03-31T03:58:09.390Z,27.60
2018-03-31T04:00:37.834Z,27.50
2018-03-31T04:03:06.774Z,27.70
2018-03-31T04:05:34.733Z,27.80
2018-03-31T04:08:03.598Z,28.00
2018-03-31T04:10:32.726Z,28.10
2018-03-31T04:13:03.053Z,28.40
2018-03-31T04:15:32.536Z,28.60
2018-03-31T04:18:02.043Z,28.90
2018-03-31T04:20:30.215Z,28.90
2018-03-31T04:22:59.062Z,29.20
2018-03-31T04:25:27.984Z,29.30
2018-03-31T04:27:57.905Z,30.00
2018-03-31T04:30:27.611Z,30.50
2018-03-31T04:32:56.179Z,30.40
2018-03-31T04:35:25.107Z,30.60
2018-03-31T04:37:53.896Z,31.40
2018-03-31T04:40:23.673Z,31.30
2018-03-31T04:42:52.897Z,32.40
2018-03-31T04:45:21.930Z,33.40
2018-03-31T04:47:50.183Z,33.80
2018-03-31T04:50:18.989Z,34.00
2018-03-31T04:52:47.537Z,34.00
2018-03-31T04:55:15.550Z,34.60
2018-03-31T04:57:43.792Z,34.90
2018-03-31T05:00:11.935Z,36.10
2018-03-31T05:02:40.135Z,37.40
2018-03-31T05:05:08.422Z,38.70
2018-03-31T05:07:37.273Z,40.00
2018-03-31T05:10:05.385Z,39.90
2018-03-31T05:12:33.656Z,39.20
2018-03-31T05:15:01.660Z,38.10
2018-03-31T05:17:29.905Z,37.20
2018-03-31T05:19:58.050Z,36.60
2018-03-31T05:22:26.154Z,36.70
2018-03-31T05:24:54.506Z,36.30
2018-03-31T05:27:22.549Z,36.30
2018-03-31T05:29:50.883Z,36.40
2018-03-31T05:32:19.777Z,37.60
2018-03-31T05:34:47.957Z,37.60
2018-03-31T05:37:16.754Z,39.50
2018-03-31T05:39:45.742Z,39.90
2018-03-31T05:42:13.853Z,39.90
2018-03-31T05:44:41.780Z,40.20
2018-03-31T05:47:09.792Z,40.50
2018-03-31T05:49:38.033Z,40.20
2018-03-31T05:52:06.205Z,40.00
2018-03-31T05:54:35.270Z,38.90
2018-03-31T05:57:04.089Z,38.50
2018-03-31T05:59:33.186Z,38.10
2018-03-31T06:02:01.094Z,38.00
2018-03-31T06:04:29.232Z,38.20
2018-03-31T06:06:57.522Z,38.00
2018-03-31T06:09:26.194Z,38.00
2018-03-31T06:11:54.207Z,37.90
2018-03-31T06:14:22.544Z,37.80
2018-03-31T06:16:50.734Z,37.90
2018-03-31T06:19:18.894Z,37.80
2018-03-31T06:21:47.788Z,38.20
2018-03-31T06:24:16.140Z,38.20
2018-03-31T06:26:44.238Z,39.50
2018-03-31T06:29:12.417Z,40.60
2018-03-31T06:31:41.512Z,41.90
2018-03-31T06:34:09.494Z,41.90
2018-03-31T06:36:38.388Z,42.70
2018-03-31T06:39:07.164Z,42.80
2018-03-31T06:41:35.255Z,42.80
2018-03-31T06:44:03.939Z,41.40
2018-03-31T06:46:32.931Z,40.60
2018-03-31T06:49:01.710Z,40.30
2018-03-31T06:51:29.905Z,40.30
2018-03-31T06:53:57.958Z,39.90
2018-03-31T06:56:25.938Z,39.60
2018-03-31T06:58:54.936Z,38.90
2018-03-31T07:01:23.711Z,38.80
2018-03-31T07:03:53.334Z,38.50
2018-03-31T07:06:22.019Z,38.50
2018-03-31T07:08:51.016Z,38.30
2018-03-31T07:11:19.767Z,38.10
2018-03-31T07:13:48.069Z,38.10
2018-03-31T07:16:16.249Z,37.80
2018-03-31T07:18:45.315Z,36.80
2018-03-31T07:21:13.252Z,36.70
2018-03-31T07:23:41.386Z,36.20
2018-03-31T07:26:11.105Z,35.30
2018-03-31T07:28:39.169Z,35.40
2018-03-31T07:31:07.243Z,35.20
2018-03-31T07:33:35.325Z,35.30
2018-03-31T07:36:04.442Z,35.10
2018-03-31T07:38:32.690Z,35.10
2018-03-31T07:41:00.774Z,35.10
2018-03-31T07:43:29.902Z,35.20
2018-03-31T07:45:58.035Z,35.20
2018-03-31T07:48:26.183Z,35.40
2018-03-31T07:50:54.487Z,35.50
2018-03-31T07:53:22.773Z,35.60
2018-03-31T07:55:51.779Z,35.60
2018-03-31T07:58:20.622Z,35.60
2018-03-31T08:00:48.737Z,35.60
2018-03-31T08:03:17.450Z,35.30
2018-03-31T08:05:45.690Z,35.30
2018-03-31T08:08:13.775Z,35.40
2018-03-31T08:10:42.766Z,36.60
2018-03-31T08:13:11.622Z,37.70
2018-03-31T08:15:39.927Z,37.70
2018-03-31T08:18:08.182Z,38.50
2018-03-31T08:20:36.380Z,39.70
2018-03-31T08:23:04.671Z,40.60
2018-03-31T08:25:33.522Z,40.30
2018-03-31T08:28:01.826Z,40.30
2018-03-31T08:30:30.013Z,39.00
2018-03-31T08:32:57.910Z,38.00
2018-03-31T08:35:26.251Z,37.20
2018-03-31T08:37:54.262Z,36.20
2018-03-31T08:40:22.400Z,35.60
2018-03-31T08:42:50.681Z,35.40
2018-03-31T08:45:19.539Z,35.30
2018-03-31T08:47:47.842Z,35.30
2018-03-31T08:50:15.820Z,35.30
2018-03-31T08:52:43.826Z,35.30
2018-03-31T08:55:12.279Z,35.30
2018-03-31T08:57:40.355Z,35.30
2018-03-31T09:00:09.349Z,35.20
2018-03-31T09:02:38.093Z,35.30
2018-03-31T09:05:06.304Z,35.30
2018-03-31T09:07:34.475Z,35.40
2018-03-31T09:10:03.542Z,35.40
2018-03-31T09:12:31.644Z,35.40
2018-03-31T09:14:59.820Z,35.40
2018-03-31T09:17:28.006Z,35.40
2018-03-31T09:19:56.726Z,35.40
2018-03-31T09:22:25.267Z,35.30
2018-03-31T09:24:53.179Z,35.40
2018-03-31T09:27:21.313Z,35.50
2018-03-31T09:29:49.663Z,35.60
2018-03-31T09:32:17.764Z,35.60
2018-03-31T09:34:46.044Z,35.50
2018-03-31T09:37:15.111Z,35.30
2018-03-31T09:39:43.047Z,35.30
2018-03-31T09:42:11.386Z,35.10
2018-03-31T09:44:39.601Z,35.20
2018-03-31T09:47:07.632Z,35.00
2018-03-31T09:49:35.810Z,34.90
2018-03-31T09:52:03.990Z,35.00
2018-03-31T09:54:32.787Z,35.00
2018-03-31T09:57:01.997Z,35.10
2018-03-31T09:59:30.146Z,35.00
2018-03-31T10:01:58.297Z,34.80
2018-03-31T10:04:26.606Z,34.80
2018-03-31T10:06:54.746Z,34.90
2018-03-31T10:09:22.688Z,34.70
2018-03-31T10:11:51.126Z,34.70
2018-03-31T10:14:19.133Z,34.70
2018-03-31T10:16:47.273Z,34.70
2018-03-31T10:19:15.628Z,34.70
2018-03-31T10:21:43.724Z,34.70
2018-03-31T10:24:11.901Z,34.50
2018-03-31T10:26:40.967Z,34.40
2018-03-31T10:29:09.104Z,34.40
2018-03-31T10:31:37.244Z,34.50
2018-03-31T10:34:05.458Z,34.30
2018-03-31T10:36:33.494Z,34.20
2018-03-31T10:39:01.638Z,34.30
2018-03-31T10:41:29.946Z,34.10
2018-03-31T10:43:58.098Z,34.00
2018-03-31T10:46:26.195Z,34.00
2018-03-31T10:48:54.649Z,34.10
2018-03-31T10:51:22.852Z,33.90
2018-03-31T10:53:51.025Z,33.70
2018-03-31T10:56:19.115Z,33.50
2018-03-31T10:58:47.935Z,33.20
2018-03-31T11:01:16.269Z,33.10
2018-03-31T11:03:44.350Z,33.00
2018-03-31T11:06:13.347Z,33.10
2018-03-31T11:08:41.408Z,33.10
2018-03-31T11:11:09.763Z,33.20
2018-03-31T11:13:37.760Z,33.20
2018-03-31T11:16:05.834Z,33.10
2018-03-31T11:18:34.041Z,33.10
2018-03-31T11:21:02.182Z,33.10
2018-03-31T11:23:30.052Z,33.20
2018-03-31T11:25:58.162Z,33.10
2018-03-31T11:28:26.300Z,33.10
2018-03-31T11:30:54.581Z,33.00
2018-03-31T11:33:23.443Z,32.80
2018-03-31T11:35:51.746Z,32.80
2018-03-31T11:38:21.329Z,32.50
2018-03-31T11:40:49.631Z,32.50
2018-03-31T11:43:17.807Z,32.30
2018-03-31T11:45:45.715Z,32.30
2018-03-31T11:48:13.850Z,32.20
2018-03-31T11:50:41.935Z,32.20
2018-03-31T11:53:10.932Z,32.20
2018-03-31T11:55:39.785Z,32.30
2018-03-31T11:58:08.088Z,32.30
2018-03-31T12:00:36.505Z,32.30
2018-03-31T12:03:04.848Z,32.30
2018-03-31T12:05:32.946Z,32.20
2018-03-31T12:08:01.886Z,32.10
2018-03-31T12:10:30.878Z,32.00
2018-03-31T12:12:59.186Z,32.00
2018-03-31T12:15:27.165Z,32.00
2018-03-31T12:17:55.333Z,31.90
2018-03-31T12:20:23.713Z,31.90
2018-03-31T12:22:51.617Z,31.80
2018-03-31T12:25:19.654Z,31.80
2018-03-31T12:27:47.903Z,31.70
2018-03-31T12:30:16.004Z,31.70
2018-03-31T12:32:44.179Z,31.60
2018-03-31T12:35:13.251Z,31.70
2018-03-31T12:37:41.347Z,31.70
2018-03-31T12:40:11.163Z,31.70
2018-03-31T12:42:39.065Z,31.70
2018-03-31T12:45:07.208Z,31.80
2018-03-31T12:47:35.420Z,31.70
2018-03-31T12:50:03.558Z,31.70
2018-03-31T12:52:31.847Z,31.60
2018-03-31T12:55:00.840Z,31.50
2018-03-31T12:57:29.734Z,31.40
2018-03-31T12:59:58.692Z,31.30
2018-03-31T13:02:26.807Z,31.30
2018-03-31T13:04:54.963Z,31.30
2018-03-31T13:07:23.281Z,31.20
2018-03-31T13:09:51.416Z,31.20
2018-03-31T13:12:19.634Z,31.20
2018-03-31T13:14:47.974Z,31.20
2018-03-31T13:17:16.050Z,31.20
2018-03-31T13:19:45.052Z,31.20
2018-03-31T13:22:13.901Z,31.20
2018-03-31T13:24:42.208Z,31.20
2018-03-31T13:27:10.361Z,31.10
2018-03-31T13:29:38.291Z,31.10
2018-03-31T13:32:06.632Z,31.10
2018-03-31T13:34:34.520Z,31.10
2018-03-31T13:37:02.571Z,31.10
2018-03-31T13:39:31.021Z,31.10
2018-03-31T13:41:59.128Z,31.20
2018-03-31T13:44:27.301Z,31.10
2018-03-31T13:46:55.391Z,31.10
2018-03-31T13:49:24.076Z,31.00
2018-03-31T13:51:53.072Z,31.10
2018-03-31T13:54:21.846Z,31.00
2018-03-31T13:56:50.247Z,31.00
2018-03-31T13:59:18.375Z,30.90
2018-03-31T14:01:46.491Z,30.90
2018-03-31T14:04:15.308Z,30.80
2018-03-31T14:06:43.439Z,30.80
2018-03-31T14:09:11.631Z,30.60
2018-03-31T14:11:40.403Z,30.50
2018-03-31T14:14:09.408Z,30.50
2018-03-31T14:16:38.189Z,30.50
2018-03-31T14:19:06.369Z,30.50
2018-03-31T14:21:35.163Z,30.40
2018-03-31T14:24:04.760Z,30.50
2018-03-31T14:26:32.906Z,30.40
2018-03-31T14:29:01.010Z,30.50
2018-03-31T14:31:29.389Z,30.50
2018-03-31T14:33:57.565Z,30.40
2018-03-31T14:36:25.944Z,30.40
2018-03-31T14:38:53.855Z,30.20
2018-03-31T14:41:21.989Z,30.10
2018-03-31T14:43:50.279Z,30.00
2018-03-31T14:46:19.130Z,29.70
2018-03-31T14:48:47.434Z,29.70
2018-03-31T14:51:15.582Z,29.60
2018-03-31T14:53:43.699Z,29.60
2018-03-31T14:56:12.415Z,29.40
2018-03-31T14:58:40.753Z,29.30
2018-03-31T15:01:08.833Z,29.20
2018-03-31T15:03:37.832Z,29.00
2018-03-31T15:06:06.723Z,28.90
2018-03-31T15:08:35.715Z,28.80
2018-03-31T15:11:03.778Z,28.80
2018-03-31T15:13:31.951Z,28.80
2018-03-31T15:16:01.053Z,28.70
2018-03-31T15:18:28.958Z,28.70
2018-03-31T15:20:56.992Z,28.60
2018-03-31T15:23:25.278Z,28.50
2018-03-31T15:25:54.133Z,28.60
2018-03-31T15:28:22.436Z,28.50
2018-03-31T15:30:50.612Z,28.60
2018-03-31T15:33:19.607Z,28.60
2018-03-31T15:35:47.520Z,28.60
2018-03-31T15:38:15.547Z,28.60
2018-03-31T15:40:43.898Z,28.60
2018-03-31T15:43:12.103Z,28.50
2018-03-31T15:45:40.073Z,28.50
2018-03-31T15:48:08.296Z,28.50
2018-03-31T15:50:36.425Z,28.40
2018-03-31T15:53:04.709Z,28.40
2018-03-31T15:55:33.561Z,28.40
2018-03-31T15:58:01.870Z,28.30
2018-03-31T16:00:30.046Z,28.30
2018-03-31T16:02:58.944Z,28.40
2018-03-31T16:05:27.727Z,28.40
2018-03-31T16:07:56.127Z,28.40
2018-03-31T16:10:24.386Z,28.30
2018-03-31T16:12:52.498Z,28.20
2018-03-31T16:15:20.529Z,28.20
2018-03-31T16:17:48.784Z,28.20
2018-03-31T16:20:16.885Z,28.10
2018-03-31T16:22:45.578Z,28.00
2018-03-31T16:25:13.749Z,28.00
2018-03-31T16:27:41.922Z,28.00
2018-03-31T16:30:10.913Z,28.00
2018-03-31T16:32:38.922Z,28.00
2018-03-31T16:35:07.058Z,27.90
2018-03-31T16:37:35.284Z,27.90
2018-03-31T16:40:03.410Z,27.90
2018-03-31T16:42:31.702Z,27.90
2018-03-31T16:45:00.555Z,27.90
2018-03-31T16:47:30.102Z,27.80
2018-03-31T16:49:58.783Z,27.80
2018-03-31T16:52:27.877Z,27.80
2018-03-31T16:54:55.944Z,27.80
2018-03-31T16:57:24.175Z,27.80
2018-03-31T16:59:52.312Z,27.80
2018-03-31T17:02:20.366Z,27.80
2018-03-31T17:04:48.587Z,27.80
2018-03-31T17:07:16.613Z,27.80
2018-03-31T17:09:44.968Z,27.80
2018-03-31T17:12:13.169Z,27.80
2018-03-31T17:14:41.343Z,27.70
2018-03-31T17:17:09.327Z,27.70
2018-03-31T17:19:38.180Z,27.70
2018-03-31T17:22:06.280Z,27.70
2018-03-31T17:24:34.453Z,27.70
2018-03-31T17:27:02.567Z,27.70
2018-03-31T17:29:30.703Z,27.70
2018-03-31T17:31:58.909Z,27.70
2018-03-31T17:34:27.259Z,27.70
2018-03-31T17:36:55.347Z,27.60
2018-03-31T17:39:23.709Z,27.70
2018-03-31T17:41:51.795Z,27.70
2018-03-31T17:44:20.652Z,27.70
2018-03-31T17:46:48.749Z,27.70
2018-03-31T17:49:16.923Z,27.60
2018-03-31T17:51:45.011Z,27.60
2018-03-31T17:54:13.695Z,27.50
2018-03-31T17:56:42.692Z,27.50
2018-03-31T17:59:11.542Z,27.50
2018-03-31T18:01:39.846Z,27.50
2018-03-31T18:04:08.022Z,27.50
2018-03-31T18:06:37.295Z,27.50
2018-03-31T18:09:05.371Z,27.50
2018-03-31T18:11:33.890Z,27.40
2018-03-31T18:14:02.056Z,27.40
2018-03-31T18:16:31.460Z,27.40
2018-03-31T18:18:59.444Z,27.40
2018-03-31T18:21:28.394Z,27.40
2018-03-31T18:23:56.703Z,27.40
2018-03-31T18:26:24.990Z,27.40
2018-03-31T18:28:53.768Z,27.30
2018-03-31T18:31:21.853Z,27.30
2018-03-31T18:33:50.644Z,27.30
2018-03-31T18:36:18.908Z,27.30
2018-03-31T18:38:46.992Z,27.30
2018-03-31T18:41:15.156Z,27.30
2018-03-31T18:43:43.441Z,27.20
2018-03-31T18:46:11.508Z,27.20
2018-03-31T18:48:41.398Z,27.20
2018-03-31T18:51:09.498Z,27.20
2018-03-31T18:53:37.846Z,27.20
2018-03-31T18:56:05.784Z,27.20
2018-03-31T18:58:33.826Z,27.20
2018-03-31T19:01:02.108Z,27.20
2018-03-31T19:03:30.859Z,27.20
2018-03-31T19:05:59.169Z,27.20
2018-03-31T19:08:27.311Z,27.10
2018-03-31T19:10:55.261Z,27.10
2018-03-31T19:13:23.383Z,27.10
2018-03-31T19:15:51.462Z,27.10
2018-03-31T19:18:19.649Z,27.10
2018-03-31T19:20:48.024Z,27.10
2018-03-31T19:23:16.081Z,27.10
2018-03-31T19:25:44.360Z,27.10
2018-03-31T19:28:13.353Z,27.00
2018-03-31T19:30:46.756Z,27.00
2018-03-31T19:33:15.849Z,27.00
2018-03-31T19:35:49.656Z,27.00
2018-03-31T19:38:18.138Z,27.00
2018-03-31T19:40:46.313Z,27.00
2018-03-31T19:43:15.383Z,27.00
2018-03-31T19:45:43.330Z,27.00
2018-03-31T19:48:11.460Z,27.00
2018-03-31T19:50:39.671Z,27.00
2018-03-31T19:53:07.806Z,27.00
2018-03-31T19:55:35.990Z,27.00
2018-03-31T19:58:04.986Z,26.90
2018-03-31T20:00:33.764Z,26.90
2018-03-31T20:03:01.860Z,26.90
2018-03-31T20:05:30.566Z,26.90
2018-03-31T20:07:58.904Z,26.90
2018-03-31T20:10:27.051Z,26.90
2018-03-31T20:12:55.152Z,26.90
2018-03-31T20:15:23.706Z,26.90
2018-03-31T20:17:51.708Z,26.90
2018-03-31T20:20:19.885Z,26.90
2018-03-31T20:22:48.094Z,26.80
2018-03-31T20:25:16.161Z,26.80
2018-03-31T20:27:44.279Z,26.80
2018-03-31T20:30:12.584Z,26.80
2018-03-31T20:32:40.731Z,26.80
2018-03-31T20:35:09.037Z,26.80
2018-03-31T20:37:37.260Z,26.80
2018-03-31T20:40:05.296Z,26.90
2018-03-31T20:42:33.357Z,26.90
2018-03-31T20:45:01.559Z,26.90
2018-03-31T20:47:30.366Z,26.90
2018-03-31T20:49:58.703Z,26.90
2018-03-31T20:52:26.787Z,27.00
2018-03-31T20:54:55.777Z,26.90
2018-03-31T20:57:23.945Z,26.90
2018-03-31T20:59:53.041Z,26.90
2018-03-31T21:02:22.657Z,26.90
2018-03-31T21:04:51.719Z,26.80
2018-03-31T21:07:19.659Z,26.70
2018-03-31T21:09:47.690Z,26.80
2018-03-31T21:12:15.981Z,26.80
2018-03-31T21:14:44.836Z,26.70
2018-03-31T21:17:13.239Z,26.70
2018-03-31T21:19:41.387Z,26.70
2018-03-31T21:22:09.692Z,26.70
2018-03-31T21:24:37.871Z,26.70
2018-03-31T21:27:05.779Z,26.70
2018-03-31T21:29:34.019Z,26.70
2018-03-31T21:32:02.057Z,26.70
2018-03-31T21:34:30.158Z,26.70
2018-03-31T21:36:58.614Z,26.70
2018-03-31T21:39:26.715Z,26.70
2018-03-31T21:41:55.067Z,26.70
2018-03-31T21:44:23.007Z,26.70
2018-03-31T21:46:51.138Z,26.70
2018-03-31T21:49:19.430Z,26.60
2018-03-31T21:51:48.206Z,26.60
2018-03-31T21:54:17.324Z,26.50
2018-03-31T21:56:46.093Z,26.50
2018-03-31T21:59:15.190Z,26.50
2018-03-31T22:01:43.099Z,26.50
2018-03-31T22:04:11.233Z,26.50
2018-03-31T22:06:39.623Z,26.40
2018-03-31T22:09:08.374Z,26.40
2018-03-31T22:11:36.680Z,26.40
2018-03-31T22:14:10.190Z,26.30
2018-03-31T22:16:39.278Z,26.30
2018-03-31T22:19:07.525Z,26.30
2018-03-31T22:21:35.730Z,26.30
2018-03-31T22:24:03.906Z,26.30
2018-03-31T22:26:32.969Z,26.30
2018-03-31T22:29:00.871Z,26.30
2018-03-31T22:31:29.046Z,26.30
2018-03-31T22:33:57.262Z,26.20
2018-03-31T22:36:25.395Z,26.20
2018-03-31T22:38:53.687Z,26.20
2018-03-31T22:41:22.433Z,26.00
2018-03-31T22:43:50.741Z,26.00
2018-03-31T22:46:18.887Z,26.00
2018-03-31T22:48:46.993Z,25.90
2018-03-31T22:51:15.268Z,25.80
2018-03-31T22:53:43.175Z,25.80
2018-03-31T22:56:11.283Z,25.80
2018-03-31T22:58:39.499Z,25.80
2018-03-31T23:01:08.276Z,25.70
2018-03-31T23:03:37.381Z,25.70
2018-03-31T23:06:05.757Z,25.70
2018-03-31T23:08:34.170Z,25.60
2018-03-31T23:11:02.819Z,25.60
2018-03-31T23:13:31.302Z,25.60
2018-03-31T23:15:59.789Z,25.50
2018-03-31T23:18:28.164Z,25.50
2018-03-31T23:20:57.715Z,25.50
2018-03-31T23:23:25.845Z,25.50
2018-03-31T23:25:55.148Z,25.50
2018-03-31T23:28:23.527Z,25.50
2018-03-31T23:30:52.050Z,25.40
2018-03-31T23:33:20.499Z,25.40
2018-03-31T23:35:49.231Z,25.40
2018-03-31T23:38:17.326Z,25.30
2018-03-31T23:40:45.439Z,25.40
2018-03-31T23:43:15.322Z,25.30
2018-03-31T23:45:43.359Z,25.30
2018-03-31T23:48:11.698Z,25.30
2018-03-31T23:50:40.690Z,25.30
2018-03-31T23:53:08.878Z,25.20
2018-03-31T23:55:37.667Z,25.30
2018-03-31T23:58:06.623Z,25.20
